createdAt,value
2018-06-18T00:01:58.173Z,3.75
2018-06-18T00:04:26.593Z,3.90
2018-06-18T00:06:55.132Z,3.95
2018-06-18T00:09:23.537Z,3.75
2018-06-18T00:11:51.992Z,3.75
2018-06-18T00:14:20.410Z,3.87
2018-06-18T00:16:48.837Z,3.33
2018-06-18T00:19:17.257Z,3.80
2018-06-18T00:21:45.653Z,3.58
2018-06-18T00:24:14.469Z,3.80
2018-06-18T00:26:42.909Z,4.17
2018-06-18T00:29:11.354Z,4.65
2018-06-18T00:31:39.472Z,4.10
2018-06-18T00:34:07.891Z,4.30
2018-06-18T00:36:36.296Z,4.28
2018-06-18T00:39:07.364Z,3.85
2018-06-18T00:41:35.934Z,3.83
2018-06-18T00:44:04.389Z,3.90
2018-06-18T00:46:32.792Z,4.20
2018-06-18T00:49:01.274Z,3.25
2018-06-18T00:51:29.668Z,3.90
2018-06-18T00:53:58.104Z,3.75
2018-06-18T00:56:26.514Z,3.72
2018-06-18T00:58:55.073Z,3.40
2018-06-18T01:01:23.499Z,3.67
2018-06-18T01:03:52.024Z,3.30
2018-06-18T01:06:20.406Z,3.72
2018-06-18T01:08:48.841Z,3.83
2018-06-18T01:11:17.245Z,3.60
2018-06-18T01:13:45.685Z,3.85
2018-06-18T01:16:14.957Z,3.52
2018-06-18T01:18:43.374Z,3.80
2018-06-18T01:21:11.771Z,3.70
2018-06-18T01:23:46.068Z,3.37
2018-06-18T01:26:14.592Z,3.85
2018-06-18T01:28:43.025Z,3.42
2018-06-18T01:31:11.436Z,3.58
2018-06-18T01:33:39.899Z,3.72
2018-06-18T01:36:08.285Z,3.55
2018-06-18T01:38:36.712Z,3.80
2018-06-18T01:41:04.798Z,3.90
2018-06-18T01:43:33.216Z,3.77
2018-06-18T01:46:01.603Z,4.67
2018-06-18T01:48:30.023Z,3.65
2018-06-18T01:50:58.140Z,3.47
2018-06-18T01:53:26.572Z,4.20
2018-06-18T01:55:54.754Z,4.17
2018-06-18T01:58:23.189Z,4.25
2018-06-18T02:00:51.644Z,3.47
2018-06-18T02:03:20.036Z,3.77
2018-06-18T02:05:48.474Z,4.30
2018-06-18T02:08:16.877Z,3.67
2018-06-18T02:10:45.484Z,4.00
2018-06-18T02:13:13.912Z,3.80
2018-06-18T02:15:42.329Z,3.40
2018-06-18T02:18:10.733Z,3.67
2018-06-18T02:20:39.190Z,3.47
2018-06-18T02:23:07.646Z,4.12
2018-06-18T02:25:36.157Z,3.58
2018-06-18T02:28:09.603Z,4.03
2018-06-18T02:30:43.381Z,4.33
2018-06-18T02:33:17.082Z,3.50
2018-06-18T02:35:50.861Z,3.92
2018-06-18T02:38:24.774Z,4.20
2018-06-18T02:40:53.217Z,4.08
2018-06-18T02:43:21.728Z,3.83
2018-06-18T02:45:49.848Z,3.33
2018-06-18T02:51:39.080Z,4.15
2018-06-18T02:54:08.327Z,3.87
2018-06-18T02:56:52.381Z,4.70
2018-06-18T02:59:20.879Z,3.92
2018-06-18T03:01:49.338Z,4.12
2018-06-18T03:04:17.792Z,3.55
2018-06-18T03:06:46.275Z,3.95
2018-06-18T03:09:14.702Z,4.00
2018-06-18T03:11:42.855Z,3.15
2018-06-18T03:14:11.262Z,3.70
2018-06-18T03:16:39.781Z,4.12
2018-06-18T03:19:13.608Z,4.22
2018-06-18T03:21:47.356Z,4.90
2018-06-18T03:24:21.122Z,3.67
2018-06-18T03:26:54.665Z,3.65
2018-06-18T03:29:25.109Z,3.58
2018-06-18T03:31:55.484Z,3.90
2018-06-18T03:34:23.944Z,4.12
2018-06-18T03:36:52.648Z,4.08
2018-06-18T03:39:21.125Z,4.95
2018-06-18T03:41:51.225Z,4.50
2018-06-18T03:44:58.203Z,5.05
2018-06-18T03:47:28.685Z,5.15
2018-06-18T03:49:57.178Z,4.85
2018-06-18T03:52:25.607Z,5.25
2018-06-18T03:54:57.831Z,4.72
2018-06-18T03:57:26.344Z,5.20
2018-06-18T03:59:54.805Z,4.62
2018-06-18T04:03:07.316Z,5.03
2018-06-18T04:05:40.989Z,4.55
2018-06-18T04:08:11.625Z,5.05
2018-06-18T04:10:45.820Z,4.37
2018-06-18T04:13:14.242Z,3.90
2018-06-18T04:15:42.664Z,4.72
2018-06-18T04:18:11.113Z,4.83
2018-06-18T04:20:46.144Z,5.15
2018-06-18T04:23:14.689Z,5.20
2018-06-18T04:25:43.149Z,5.25
2018-06-18T04:28:11.801Z,5.55
2018-06-18T04:30:40.476Z,4.60
2018-06-18T04:33:09.740Z,4.00
2018-06-18T04:35:38.150Z,4.40
2018-06-18T04:38:06.596Z,4.70
2018-06-18T04:40:34.703Z,5.37
2018-06-18T04:43:08.511Z,4.53
2018-06-18T04:45:42.304Z,4.58
2018-06-18T04:48:16.084Z,4.62
2018-06-18T04:50:49.723Z,4.35
2018-06-18T04:53:18.283Z,4.28
2018-06-18T04:55:46.732Z,4.97
2018-06-18T04:58:15.239Z,4.22
2018-06-18T05:01:17.990Z,4.97
2018-06-18T05:03:46.446Z,3.92
2018-06-18T05:06:14.867Z,3.92
2018-06-18T05:10:53.705Z,3.50
2018-06-18T05:13:22.180Z,4.40
2018-06-18T05:15:52.548Z,3.85
2018-06-18T05:18:21.333Z,4.08
2018-06-18T05:20:49.837Z,4.45
2018-06-18T05:23:19.352Z,3.85
2018-06-18T05:25:51.118Z,4.67
2018-06-18T05:28:19.553Z,4.03
2018-06-18T05:30:47.959Z,3.90
2018-06-18T05:33:16.629Z,4.12
2018-06-18T05:35:45.044Z,4.62
2018-06-18T05:38:18.904Z,4.00
2018-06-18T05:40:47.324Z,3.42
2018-06-18T05:43:15.877Z,3.42
2018-06-18T05:45:44.360Z,3.70
2018-06-18T05:48:13.052Z,3.75
2018-06-18T05:50:41.530Z,4.20
2018-06-18T05:53:10.166Z,4.28
2018-06-18T05:55:38.565Z,3.67
2018-06-18T05:58:07.028Z,4.12
2018-06-18T06:00:53.982Z,3.67
2018-06-18T06:03:22.421Z,3.70
2018-06-18T06:05:50.917Z,3.95
2018-06-18T06:08:19.385Z,4.20
2018-06-18T06:10:47.801Z,3.55
2018-06-18T06:13:16.264Z,3.25
2018-06-18T06:15:44.692Z,3.17
2018-06-18T06:18:13.138Z,3.35
2018-06-18T06:20:45.940Z,4.08
2018-06-18T06:23:14.368Z,3.47
2018-06-18T06:25:42.785Z,3.30
2018-06-18T06:28:11.243Z,3.17
2018-06-18T06:30:39.684Z,3.27
2018-06-18T06:33:08.159Z,3.62
2018-06-18T06:35:39.052Z,3.77
2018-06-18T06:38:07.571Z,3.42
2018-06-18T06:40:36.213Z,3.50
2018-06-18T06:43:04.681Z,3.40
2018-06-18T06:45:33.131Z,3.15
2018-06-18T06:48:01.540Z,3.27
2018-06-18T06:50:29.965Z,3.17
2018-06-18T06:52:58.659Z,3.00
2018-06-18T06:55:27.336Z,3.70
2018-06-18T06:57:55.801Z,3.35
2018-06-18T07:00:24.292Z,2.65
2018-06-18T07:02:52.737Z,2.95
2018-06-18T07:05:21.162Z,3.37
2018-06-18T07:07:49.677Z,3.00
2018-06-18T07:10:18.155Z,3.00
2018-06-18T07:12:46.578Z,3.40
2018-06-18T07:15:15.368Z,3.47
2018-06-18T07:17:44.128Z,3.30
2018-06-18T07:20:12.736Z,3.67
2018-06-18T07:22:41.209Z,3.50
2018-06-18T07:25:09.677Z,3.15
2018-06-18T07:27:38.251Z,3.05
2018-06-18T07:30:07.508Z,3.05
2018-06-18T07:32:36.125Z,3.37
2018-06-18T07:35:04.644Z,2.70
2018-06-18T07:37:33.062Z,2.92
2018-06-18T07:40:01.542Z,3.35
2018-06-18T07:42:29.987Z,2.87
2018-06-18T07:44:58.505Z,2.40
2018-06-18T07:47:26.930Z,2.10
2018-06-18T07:49:55.380Z,2.50
2018-06-18T07:52:23.808Z,1.90
2018-06-18T07:54:52.273Z,2.10
2018-06-18T07:57:20.701Z,2.72
2018-06-18T07:59:49.150Z,2.27
2018-06-18T08:02:17.657Z,2.37
2018-06-18T08:04:46.114Z,2.52
2018-06-18T08:07:14.549Z,2.27
2018-06-18T08:09:43.018Z,2.17
2018-06-18T08:12:11.436Z,2.33
2018-06-18T08:14:39.876Z,1.57
2018-06-18T08:17:08.329Z,1.98
2018-06-18T08:19:36.910Z,1.65
2018-06-18T08:22:05.418Z,2.20
2018-06-18T08:24:33.942Z,2.52
2018-06-18T08:27:02.435Z,2.00
2018-06-18T08:29:30.843Z,1.70
2018-06-18T08:31:59.385Z,1.77
2018-06-18T08:34:28.063Z,1.87
2018-06-18T08:36:56.569Z,2.30
2018-06-18T08:39:25.031Z,1.95
2018-06-18T08:41:53.531Z,1.80
2018-06-18T08:44:21.964Z,1.82
2018-06-18T08:46:50.417Z,2.20
2018-06-18T08:49:18.896Z,1.70
2018-06-18T08:51:52.633Z,1.67
2018-06-18T08:54:26.409Z,2.00
2018-06-18T08:57:00.205Z,1.85
2018-06-18T08:59:33.945Z,1.65
2018-06-18T09:02:02.472Z,1.90
2018-06-18T09:04:36.274Z,2.12
2018-06-18T09:07:10.041Z,1.70
2018-06-18T09:09:38.484Z,1.72
2018-06-18T09:12:06.964Z,1.80
2018-06-18T09:14:35.448Z,1.70
2018-06-18T09:17:03.925Z,1.52
2018-06-18T09:19:32.312Z,1.60
2018-06-18T09:22:00.769Z,1.72
2018-06-18T09:24:33.091Z,1.70
2018-06-18T09:27:06.931Z,1.40
2018-06-18T09:29:36.269Z,1.40
2018-06-18T09:32:09.052Z,1.47
2018-06-18T09:34:37.537Z,1.80
2018-06-18T09:37:05.998Z,1.47
2018-06-18T09:39:34.409Z,1.60
2018-06-18T09:42:02.961Z,1.77
2018-06-18T09:44:31.393Z,2.20
2018-06-18T09:47:00.159Z,1.65
2018-06-18T09:49:34.033Z,1.42
2018-06-18T09:52:07.600Z,2.10
2018-06-18T09:54:41.237Z,1.70
2018-06-18T09:57:26.584Z,1.40
2018-06-18T10:00:12.103Z,1.72
2018-06-18T10:02:40.580Z,1.40
2018-06-18T10:05:09.116Z,1.70
2018-06-18T10:07:37.649Z,1.75
2018-06-18T10:10:06.073Z,1.35
2018-06-18T10:12:34.541Z,1.42
2018-06-18T10:15:02.972Z,1.12
2018-06-18T10:17:31.453Z,1.00
2018-06-18T10:20:00.031Z,1.37
2018-06-18T10:22:28.505Z,1.20
2018-06-18T10:24:56.944Z,1.30
2018-06-18T10:27:25.381Z,1.27
2018-06-18T10:29:53.803Z,1.50
2018-06-18T10:32:27.620Z,1.80
2018-06-18T10:35:01.267Z,1.32
2018-06-18T10:37:35.065Z,1.50
2018-06-18T10:40:08.736Z,1.40
2018-06-18T10:42:42.459Z,1.95
2018-06-18T10:45:10.877Z,1.40
2018-06-18T10:47:39.380Z,1.55
2018-06-18T10:50:11.442Z,1.30
2018-06-18T10:52:39.944Z,1.57
2018-06-18T10:55:08.372Z,1.15
2018-06-18T10:57:36.856Z,1.20
2018-06-18T11:00:07.504Z,1.55
2018-06-18T11:02:35.981Z,1.47
2018-06-18T11:05:04.497Z,2.00
2018-06-18T11:07:33.158Z,1.42
2018-06-18T11:10:01.634Z,2.12
2018-06-18T11:12:30.045Z,1.50
2018-06-18T11:14:58.561Z,1.70
2018-06-18T11:19:38.243Z,1.70
2018-06-18T11:22:08.221Z,1.70
2018-06-18T11:24:41.926Z,1.50
2018-06-18T11:27:11.524Z,1.42
2018-06-18T11:29:39.996Z,1.50
2018-06-18T11:32:08.457Z,1.30
2018-06-18T11:34:36.892Z,1.47
2018-06-18T11:37:05.305Z,1.30
2018-06-18T11:39:33.806Z,1.32
2018-06-18T11:42:02.324Z,1.50
2018-06-18T11:44:30.749Z,1.67
2018-06-18T11:46:59.269Z,1.65
2018-06-18T11:49:27.734Z,1.72
2018-06-18T11:51:56.188Z,1.55
2018-06-18T11:54:24.717Z,1.67
2018-06-18T11:56:53.134Z,1.30
2018-06-18T11:59:26.851Z,1.80
2018-06-18T12:02:00.593Z,1.37
2018-06-18T12:04:34.227Z,1.22
2018-06-18T12:07:07.829Z,1.70
2018-06-18T12:09:39.419Z,1.50
2018-06-18T12:12:07.865Z,1.42
2018-06-18T12:14:36.512Z,2.70
2018-06-18T12:17:04.937Z,1.45
2018-06-18T12:19:33.442Z,1.50
2018-06-18T12:22:01.864Z,1.87
2018-06-18T12:24:30.340Z,1.75
2018-06-18T12:26:58.483Z,1.60
2018-06-18T12:29:26.976Z,1.70
2018-06-18T12:31:55.424Z,1.72
2018-06-18T12:34:23.897Z,1.30
2018-06-18T12:36:52.337Z,1.55
2018-06-18T12:39:20.508Z,1.20
2018-06-18T12:41:52.667Z,1.57
2018-06-18T12:44:21.128Z,1.52
2018-06-18T12:46:54.870Z,1.40
2018-06-18T12:49:29.268Z,1.15
2018-06-18T12:52:02.947Z,1.30
2018-06-18T12:54:36.838Z,1.37
2018-06-18T12:57:07.290Z,1.80
2018-06-18T12:59:35.755Z,1.27
2018-06-18T13:02:10.447Z,1.35
2018-06-18T13:04:44.868Z,1.50
2018-06-18T13:07:13.299Z,1.37
2018-06-18T13:09:41.733Z,1.57
2018-06-18T13:12:10.198Z,1.30
2018-06-18T13:14:38.649Z,2.02
2018-06-18T13:17:07.464Z,1.20
2018-06-18T13:19:36.210Z,1.40
2018-06-18T13:22:04.670Z,1.32
2018-06-18T13:24:33.070Z,1.67
2018-06-18T13:27:01.532Z,1.35
2018-06-18T13:29:29.985Z,1.67
2018-06-18T13:31:58.464Z,1.65
2018-06-18T13:34:26.848Z,1.62
2018-06-18T13:37:00.702Z,1.27
2018-06-18T13:39:34.313Z,1.25
2018-06-18T13:42:08.225Z,1.55
2018-06-18T13:44:42.027Z,1.40
2018-06-18T13:47:15.852Z,1.07
2018-06-18T13:49:49.886Z,1.60
2018-06-18T13:52:18.348Z,1.15
2018-06-18T13:54:46.757Z,1.30
2018-06-18T13:57:15.227Z,1.30
2018-06-18T13:59:43.918Z,1.22
2018-06-18T14:02:12.397Z,1.62
2018-06-18T14:04:40.849Z,1.50
2018-06-18T14:07:09.341Z,1.50
2018-06-18T14:09:37.853Z,1.30
2018-06-18T14:12:06.611Z,1.50
2018-06-18T14:14:35.017Z,1.55
2018-06-18T14:17:03.490Z,1.30
2018-06-18T14:19:37.158Z,1.50
2018-06-18T14:22:05.979Z,1.60
2018-06-18T14:24:34.404Z,1.50
2018-06-18T14:27:02.841Z,1.20
2018-06-18T14:29:36.781Z,1.65
2018-06-18T14:32:06.393Z,1.40
2018-06-18T14:34:40.201Z,1.22
2018-06-18T14:38:15.387Z,1.45
2018-06-18T14:40:43.801Z,1.52
2018-06-18T14:43:12.225Z,1.30
2018-06-18T14:45:40.731Z,1.20
2018-06-18T14:48:09.185Z,1.32
2018-06-18T14:50:37.650Z,1.70
2018-06-18T14:53:06.083Z,1.45
2018-06-18T14:55:34.508Z,1.32
2018-06-18T14:58:02.941Z,1.12
2018-06-18T15:00:32.957Z,1.50
2018-06-18T15:03:01.473Z,1.60
2018-06-18T15:05:38.982Z,1.50
2018-06-18T15:08:07.437Z,1.57
2018-06-18T15:10:41.314Z,1.95
2018-06-18T15:13:11.989Z,1.60
2018-06-18T15:15:45.740Z,1.42
2018-06-18T15:18:14.101Z,1.60
2018-06-18T15:20:42.848Z,1.37
2018-06-18T15:23:11.372Z,1.70
2018-06-18T15:25:43.712Z,1.47
2018-06-18T15:28:12.158Z,1.37
2018-06-18T15:30:40.597Z,1.32
2018-06-18T15:33:09.049Z,1.15
2018-06-18T15:35:37.581Z,1.50
2018-06-18T15:38:06.083Z,1.85
2018-06-18T15:40:34.532Z,1.67
2018-06-18T15:43:02.715Z,1.30
2018-06-18T15:45:31.184Z,1.42
2018-06-18T15:47:59.620Z,1.55
2018-06-18T15:50:28.339Z,1.30
2018-06-18T15:52:56.748Z,1.22
2018-06-18T15:55:25.257Z,1.32
2018-06-18T15:57:53.730Z,1.47
2018-06-18T16:00:22.448Z,1.40
2018-06-18T16:02:50.937Z,1.30
2018-06-18T16:05:19.361Z,1.50
2018-06-18T16:07:47.884Z,1.50
2018-06-18T16:10:16.276Z,1.67
2018-06-18T16:12:44.693Z,1.35
2018-06-18T16:15:13.145Z,1.40
2018-06-18T16:17:41.584Z,1.42
2018-06-18T16:20:10.033Z,1.80
2018-06-18T16:22:38.510Z,1.50
2018-06-18T16:25:06.995Z,1.20
2018-06-18T16:27:35.404Z,1.57
2018-06-18T16:30:03.944Z,1.50
2018-06-18T16:32:32.389Z,1.60
2018-06-18T16:35:00.866Z,1.55
2018-06-18T16:37:29.270Z,1.50
2018-06-18T16:39:57.768Z,1.40
2018-06-18T16:42:26.197Z,1.92
2018-06-18T16:44:54.644Z,1.67
2018-06-18T16:47:23.063Z,1.60
2018-06-18T16:49:51.503Z,1.62
2018-06-18T16:52:19.911Z,2.22
2018-06-18T16:54:48.365Z,1.65
2018-06-18T16:57:16.779Z,1.50
2018-06-18T16:59:45.227Z,1.65
2018-06-18T17:02:13.673Z,1.67
2018-06-18T17:04:42.284Z,5.60
2018-06-18T17:07:10.707Z,6.42
2018-06-18T17:09:39.152Z,27.27
2018-06-18T17:12:07.614Z,4.47
2018-06-18T17:14:36.085Z,1.75
2018-06-18T17:17:04.218Z,2.00
2018-06-18T17:19:32.676Z,2.22
2018-06-18T17:22:01.110Z,1.40
2018-06-18T17:24:29.588Z,1.50
2018-06-18T17:26:58.054Z,1.50
2018-06-18T17:29:26.517Z,1.80
2018-06-18T17:31:55.325Z,1.20
2018-06-18T17:34:24.045Z,1.55
2018-06-18T17:36:53.130Z,2.47
2018-06-18T17:39:21.686Z,1.57
2018-06-18T17:41:50.129Z,1.40
2018-06-18T17:44:18.585Z,1.47
2018-06-18T17:46:47.019Z,1.40
2018-06-18T17:49:15.641Z,1.70
2018-06-18T17:51:44.207Z,1.90
2018-06-18T17:54:12.636Z,1.98
2018-06-18T17:56:41.172Z,1.60
2018-06-18T17:59:09.614Z,1.35
2018-06-18T18:01:38.186Z,1.50
2018-06-18T18:04:07.077Z,1.95
2018-06-18T18:06:35.208Z,1.20
2018-06-18T18:09:04.960Z,1.30
2018-06-18T18:11:33.445Z,1.30
2018-06-18T18:14:01.882Z,1.85
2018-06-18T18:16:30.349Z,1.27
2018-06-18T18:18:58.785Z,1.12
2018-06-18T18:21:29.087Z,1.40
2018-06-18T18:23:57.576Z,1.40
2018-06-18T18:26:26.022Z,2.08
2018-06-18T18:28:54.459Z,1.50
2018-06-18T18:31:22.963Z,1.40
2018-06-18T18:33:51.587Z,1.77
2018-06-18T18:36:20.030Z,3.90
2018-06-18T18:38:48.453Z,2.20
2018-06-18T18:41:16.880Z,1.95
2018-06-18T18:43:45.336Z,1.57
2018-06-18T18:46:13.785Z,1.57
2018-06-18T18:48:42.236Z,1.47
2018-06-18T18:51:10.734Z,1.30
2018-06-18T18:53:39.194Z,1.47
2018-06-18T18:56:18.955Z,1.60
2018-06-18T18:59:16.029Z,1.57
2018-06-18T19:01:44.548Z,1.85
2018-06-18T19:05:17.436Z,1.60
2018-06-18T19:07:45.965Z,1.92
2018-06-18T19:10:25.220Z,1.82
2018-06-18T19:12:55.753Z,1.62
2018-06-18T19:15:24.286Z,1.82
2018-06-18T19:17:52.746Z,1.57
2018-06-18T19:20:24.884Z,1.80
2018-06-18T19:22:53.360Z,1.80
2018-06-18T19:25:21.798Z,2.22
2018-06-18T19:27:50.236Z,2.20
2018-06-18T19:30:18.681Z,2.00
2018-06-18T19:32:47.219Z,2.00
2018-06-18T19:35:15.664Z,2.37
2018-06-18T19:37:44.257Z,2.30
2018-06-18T19:40:12.669Z,2.45
2018-06-18T19:42:41.143Z,2.50
2018-06-18T19:45:11.357Z,2.20
2018-06-18T19:47:47.261Z,2.60
2018-06-18T19:50:15.880Z,2.40
2018-06-18T19:52:44.441Z,2.40
2018-06-18T19:55:19.818Z,2.70
2018-06-18T19:57:48.282Z,2.80
2018-06-18T20:00:16.711Z,2.47
2018-06-18T20:02:45.251Z,2.62
2018-06-18T20:05:14.515Z,3.05
2018-06-18T20:07:47.069Z,2.35
2018-06-18T20:10:15.504Z,3.08
2018-06-18T20:12:43.997Z,2.60
2018-06-18T20:15:13.649Z,2.87
2018-06-18T20:17:42.591Z,2.47
2018-06-18T20:20:11.249Z,2.77
2018-06-18T20:22:39.710Z,2.40
2018-06-18T20:25:08.112Z,3.60
2018-06-18T20:27:36.566Z,4.10
2018-06-18T20:30:05.457Z,3.67
2018-06-18T20:32:33.961Z,3.72
2018-06-18T20:35:02.556Z,3.50
2018-06-18T20:37:30.993Z,3.20
2018-06-18T20:39:59.585Z,3.60
2018-06-18T20:42:28.020Z,3.08
2018-06-18T20:44:56.160Z,3.65
2018-06-18T20:47:24.721Z,3.08
2018-06-18T20:49:53.137Z,3.65
2018-06-18T20:52:21.538Z,3.17
2018-06-18T20:54:50.005Z,3.52
2018-06-18T20:57:18.124Z,2.75
2018-06-18T20:59:46.612Z,3.50
2018-06-18T21:02:15.121Z,2.67
2018-06-18T21:04:43.797Z,2.62
2018-06-18T21:07:12.240Z,3.00
2018-06-18T21:09:40.775Z,3.12
2018-06-18T21:12:09.193Z,3.55
2018-06-18T21:14:37.686Z,3.67
2018-06-18T21:17:06.181Z,3.98
2018-06-18T21:19:34.616Z,3.47
2018-06-18T21:22:03.249Z,3.22
2018-06-18T21:24:31.732Z,3.30
2018-06-18T21:27:00.161Z,3.58
2018-06-18T21:29:28.673Z,3.08
2018-06-18T21:31:57.081Z,3.17
2018-06-18T21:34:25.564Z,3.47
2018-06-18T21:36:54.001Z,4.17
2018-06-18T21:39:22.514Z,3.47
2018-06-18T21:41:50.979Z,4.03
2018-06-18T21:44:24.477Z,3.65
2018-06-18T21:46:52.900Z,3.15
2018-06-18T21:49:21.344Z,3.72
2018-06-18T21:51:49.760Z,4.03
2018-06-18T21:54:18.198Z,4.67
2018-06-18T21:56:46.635Z,5.00
2018-06-18T21:59:15.080Z,5.15
2018-06-18T22:01:45.666Z,3.20
2018-06-18T22:04:15.121Z,3.10
2018-06-18T22:06:43.734Z,3.15
2018-06-18T22:09:14.536Z,3.30
2018-06-18T22:11:44.657Z,2.70
2018-06-18T22:14:13.145Z,3.47
2018-06-18T22:16:41.562Z,2.85
2018-06-18T22:19:10.069Z,3.50
2018-06-18T22:21:39.135Z,2.90
2018-06-18T22:24:07.857Z,2.47
2018-06-18T22:26:36.373Z,3.15
2018-06-18T22:29:05.495Z,3.27
2018-06-18T22:31:33.984Z,2.98
2018-06-18T22:34:02.428Z,3.05
2018-06-18T22:36:30.917Z,2.67
2018-06-18T22:38:59.371Z,2.85
2018-06-18T22:41:27.835Z,2.33
2018-06-18T22:43:56.292Z,2.50
2018-06-18T22:46:24.746Z,2.62
2018-06-18T22:48:53.224Z,2.95
2018-06-18T22:51:21.661Z,3.00
2018-06-18T22:53:50.120Z,2.98
2018-06-18T22:56:18.733Z,2.83
2018-06-18T22:58:47.352Z,3.33
2018-06-18T23:01:15.826Z,2.90
2018-06-18T23:03:44.289Z,3.00
2018-06-18T23:06:12.767Z,3.27
2018-06-18T23:08:41.207Z,3.08
2018-06-18T23:11:09.385Z,3.10
2018-06-18T23:13:38.597Z,2.80
2018-06-18T23:16:08.116Z,3.10
2018-06-18T23:18:36.567Z,3.27
2018-06-18T23:21:05.175Z,3.30
2018-06-18T23:23:33.629Z,3.02
2018-06-18T23:26:02.114Z,4.60
2018-06-18T23:28:32.243Z,3.30
2018-06-18T23:31:00.735Z,3.20
2018-06-18T23:33:29.172Z,3.55
2018-06-18T23:35:57.679Z,3.55
2018-06-18T23:38:26.158Z,3.52
2018-06-18T23:40:54.642Z,2.95
2018-06-18T23:43:23.164Z,3.30
2018-06-18T23:45:51.644Z,3.62
2018-06-18T23:48:20.112Z,3.67
2018-06-18T23:50:48.536Z,3.05
2018-06-18T23:53:16.660Z,3.92
2018-06-18T23:55:45.140Z,2.90
2018-06-18T23:58:13.568Z,3.45
